Murphy, North Carolina
Current Conditions -  °F | °C
As of 3:50 PM on Saturday 25 Oct 2014 (Local Time) from KRHP Reporting Station
Clear Clear  
Wind Chill: 72°   Ceiling: Unl
Heat Index: 72°   Visibility: 10mi
Dew Point: 43°   Wind: 5mph
Humidity: 35%   Direction: 250°WSW
Pressure: 30.01"   Gusts: NA
Location:  35.09°N, 84.03°W
Report Text: KRHP 251950Z AUTO 25004KT 10SM CLR 22/06 A3001 RMK AO2 T02230062
Loading
Personal Weather Stations






























Interactive Weather Map
Tropical Storm Tracking
New forecast layout! Learn more

10-Day Weather Forecast

Advertisements
Track Severe Weather on mobile